TimeMST,TemperatureF,Dew PointF,Humidity,Sea Level PressureIn,VisibilityMPH,Wind Direction,Wind SpeedMPH,Gust SpeedMPH,PrecipitationIn,Events,Conditions,WindDirDegrees,DateUTC
5:00 AM,28,14,41,29.63,15,West,11.5,,,,Overcast,270,2012-12-14 12:00:00
5:00 AM,28.4,14.0,55,29.62,15.0,West,9.2,-,N/A,,Overcast,270,2012-12-14 12:00:00
6:00 AM,28.4,14.0,55,29.62,15.0,West,16.1,-,N/A,,Overcast,270,2012-12-14 13:00:00
7:00 AM,28.4,14.0,55,29.61,15.0,West,13.8,-,N/A,,Overcast,280,2012-12-14 14:00:00
8:00 AM,26.6,14.0,59,29.62,15.0,NW,6.9,-,N/A,,Overcast,310,2012-12-14 15:00:00
9:00 AM,23.0,12.2,63,29.65,30.0,NNW,8.1,-,N/A,,Mostly Cloudy,330,2012-12-14 16:00:00
10:00 AM,26.6,12.2,55,29.66,30.0,NW,6.9,-,N/A,,Mostly Cloudy,320,2012-12-14 17:00:00
11:00 AM,28,12,37,29.67,28,NW,10.4,,,,Mostly Cloudy,320,2012-12-14 18:00:00
11:00 AM,28.4,12.2,51,29.67,30.0,NW,10.4,-,N/A,,Mostly Cloudy,320,2012-12-14 18:00:00
12:00 PM,28.4,15.8,59,29.67,30.0,NNW,6.9,-,N/A,,Mostly Cloudy,330,2012-12-14 19:00:00
1:00 PM,30.2,15.8,55,29.68,30.0,NW,10.4,-,N/A,,Mostly Cloudy,320,2012-12-14 20:00:00
2:00 PM,26.6,15.8,64,29.70,35.0,NW,3.5,-,N/A,,Mostly Cloudy,320,2012-12-14 21:00:00
3:00 PM,28.4,12.2,51,29.71,30.0,NNE,9.2,-,N/A,,Mostly Cloudy,20,2012-12-14 22:00:00
4:00 PM,24.8,8.6,50,29.74,30.0,NE,4.6,-,N/A,,Mostly Cloudy,50,2012-12-14 23:00:00
5:00 PM,19,7,46,29.78,25,Calm,Calm,,,,Scattered Clouds,,2012-12-15 00:00:00
5:00 PM,19.4,6.8,58,29.78,25.0,WNW,5.8,-,N/A,,Mostly Cloudy,290,2012-12-15 00:00:00
6:00 PM,14.0,3.2,62,29.82,15.0,WNW,4.6,-,N/A,,Scattered Clouds,290,2012-12-15 01:00:00
7:00 PM,17.6,6.8,63,29.85,15.0,North,3.5,-,N/A,,Mostly Cloudy,350,2012-12-15 02:00:00
8:00 PM,15.8,10.4,79,29.88,15.0,East,3.5,-,N/A,,Clear,90,2012-12-15 03:00:00
9:00 PM,8.6,5.0,85,29.92,15.0,NW,5.8,-,N/A,,Partly Cloudy,320,2012-12-15 04:00:00
10:00 PM,10.4,6.8,85,29.91,15.0,WNW,5.8,-,N/A,,Mostly Cloudy,290,2012-12-15 05:00:00